Flight Track Log - Related Links

Times and Time Zones

All times are in EST time to prevent confusion due to time zone crossing. See the SWA499 flight status page for this flight to view local times or setup timezone preferences in your user account.


Time Position Orientation Groundspeed Altitude Reporting Facility
EST Latitude Longitude Course Direction KTS MPH feet Rate Location/Type
Mon 03:32:31 PM 36.0767 -115.1706 270° West 161 185 3,200  Level Los Angeles Center
Mon 03:33:26 PM 36.0764 -115.2292 270° West 211 243 4,700 2,313 Climbing Los Angeles Center
Mon 03:34:07 PM 36.0894 -115.2806 287° West 243 280 6,900 3,134 Climbing Los Angeles Center
Mon 03:34:33 PM 36.1142 -115.2942 336° Northwest 231 266 8,200 2,903 Climbing Los Angeles Center
Mon 03:35:09 PM 36.1514 -115.2875 North 239 275 9,900 2,571 Climbing Los Angeles Center
Mon 03:36:11 PM 36.1881 -115.2092 60° Northeast 277 319 12,400 2,758 Climbing Los Angeles Center
Mon 03:37:13 PM 36.1967 -115.0822 85° East 347 399 15,600 2,806 Climbing Los Angeles Center
Mon 03:38:15 PM 36.1978 -114.9639 89° East 371 427 18,200 2,496 Climbing Los Angeles Center
Mon 03:39:18 PM 36.1986 -114.8286 90° East 392 451 20,800 2,736 Climbing Los Angeles Center
Mon 03:40:20 PM 36.1983 -114.6564 90° East 416 479 23,900 2,710 Climbing Los Angeles Center
Mon 03:41:22 PM 36.1964 -114.5097 91° East 425 489 26,400 2,177 Climbing Los Angeles Center
Mon 03:42:24 PM 36.1942 -114.3594 91° East 435 501 28,400 1,790 Climbing Los Angeles Center
Mon 03:43:26 PM 36.1964 -114.2039 89° East 449 517 30,100 1,597 Climbing Los Angeles Center
Mon 03:44:28 PM 36.2172 -114.0483 81° East 458 527 31,700 1,742 Climbing Los Angeles Center
Mon 03:45:30 PM 36.2353 -113.8897 82° East 464 534 33,700 2,081 Climbing Los Angeles Center
Mon 03:46:32 PM 36.2575 -113.7047 81° East 454 522 36,000 1,776 Climbing Los Angeles Center
Mon 03:47:35 PM 36.2747 -113.5525 82° East 447 514 37,400 1,152 Climbing Los Angeles Center
Mon 03:48:37 PM 36.2917 -113.3978 82° East 451 519 38,400 774 Climbing Los Angeles Center
Mon 03:49:39 PM 36.3100 -113.2425 82° East 455 524 39,000 290 Climbing Los Angeles Center
Mon 03:50:41 PM 36.3411 -113.0678 77° East 454 522 39,000  Level Los Angeles Center
Mon 03:51:43 PM 36.3692 -112.9139 77° East 458 527 39,000  Level Los Angeles Center
Mon 03:52:45 PM 36.3967 -112.7628 77° East 454 522 39,000  Level Los Angeles Center
Mon 03:53:47 PM 36.4231 -112.6114 78° East 452 520 39,000  Level Los Angeles Center
Mon 03:54:50 PM 36.4508 -112.4600 77° East 452 520 39,000  Level Los Angeles Center
Mon 03:55:52 PM 36.4825 -112.2778 78° East 453 521 39,000  Level Los Angeles Center
Mon 03:56:54 PM 36.5092 -112.1272 78° East 450 518 39,000  Level Los Angeles Center
Mon 03:57:56 PM 36.5358 -111.9742 78° East 455 524 39,000  Level Los Angeles Center
Mon 03:58:58 PM 36.5622 -111.8217 78° East 454 522 39,000  Level Los Angeles Center
Mon 04:00:00 PM 36.5881 -111.6689 78° East 454 522 39,000  Level Los Angeles Center
Mon 04:00:34 PM 36.6036 -111.5767 78° East 453 521 39,000  Level Denver Center
Mon 04:01:35 PM 36.6314 -111.4217 77° East 457 526 39,000  Level Denver Center
Mon 04:02:37 PM 36.6564 -111.2656 79° East 460 529 39,000  Level Denver Center
Mon 04:03:51 PM 36.6886 -111.0794 78° East 461 531 39,000  Level Denver Center
Mon 04:04:53 PM 36.7200 -110.8925 78° East 461 531 39,000  Level Denver Center
Mon 04:05:55 PM 36.7422 -110.7386 80° East 457 526 39,000  Level Denver Center
Mon 04:06:57 PM 36.7683 -110.5825 78° East 460 529 39,000  Level Denver Center
Mon 04:07:59 PM 36.7925 -110.4297 79° East 453 521 39,000  Level Denver Center
Mon 04:09:01 PM 36.8175 -110.2733 79° East 458 527 39,000  Level Denver Center
Mon 04:10:03 PM 36.8419 -110.1114 79° East 454 522 39,000  Level Denver Center
Mon 04:11:05 PM 36.8689 -109.9383 79° East 454 522 39,000  Level Denver Center
Mon 04:12:06 PM 36.8928 -109.7883 79° East 458 527 39,000  Level Denver Center
Mon 04:13:08 PM 36.9189 -109.6142 79° East 457 526 39,000  Level Denver Center
Mon 04:14:10 PM 36.9419 -109.4639 79° East 458 527 39,000  Level Denver Center
Mon 04:15:12 PM 36.9678 -109.2867 80° East 461 531 39,000  Level Denver Center
Mon 04:16:14 PM 36.9906 -109.1350 79° East 461 531 39,000  Level Denver Center
Mon 04:17:16 PM 37.0167 -108.9586 79° East 461 531 39,000  Level Denver Center
Mon 04:18:18 PM 37.0383 -108.8086 80° East 458 527 39,000  Level Denver Center
Mon 04:19:20 PM 37.0597 -108.6561 80° East 462 532 39,000  Level Denver Center
Mon 04:20:22 PM 37.0853 -108.4808 80° East 460 529 39,000  Level Denver Center
Mon 04:21:24 PM 37.1067 -108.3281 80° East 461 531 39,000  Level Denver Center
Mon 04:22:26 PM 37.1311 -108.1514 80° East 461 531 39,000  Level Denver Center
Mon 04:23:28 PM 37.1519 -108.0006 80° East 460 529 39,000  Level Denver Center
Mon 04:24:29 PM 37.1697 -107.8733 80° East 462 532 39,000  Level Denver Center
Mon 04:25:32 PM 37.1972 -107.6700 80° East 462 532 39,000  Level Denver Center
Mon 04:26:34 PM 37.2214 -107.4906 80° East 465 535 39,000  Level Denver Center
Mon 04:27:36 PM 37.2417 -107.3342 81° East 471 542 39,000  Level Denver Center
Mon 04:28:38 PM 37.2619 -107.1803 81° East 469 540 39,000  Level Denver Center
Mon 04:29:40 PM 37.2856 -106.9994 81° East 469 540 39,000  Level Denver Center
Mon 04:30:42 PM 37.3047 -106.8450 81° East 469 540 39,000  Level Denver Center
Mon 04:31:44 PM 37.3272 -106.6642 81° East 467 537 39,000  Level Denver Center
Mon 04:32:46 PM 37.3478 -106.5108 80° East 466 536 39,000  Level Denver Center
Mon 04:33:48 PM 37.3678 -106.3317 82° East 465 535 39,000  Level Denver Center
Mon 04:34:50 PM 37.3869 -106.1786 81° East 464 534 39,000  Level Denver Center
Mon 04:36:04 PM 37.4086 -105.9967 81° East 470 541 39,000  Level Denver Center
Mon 04:37:07 PM 37.4303 -105.8150 81° East 471 542 39,000  Level Denver Center
Mon 04:38:09 PM 37.4514 -105.6339 82° East 470 541 39,000  Level Denver Center
Mon 04:39:11 PM 37.4689 -105.4778 82° East 471 542 39,000  Level Denver Center
Mon 04:40:13 PM 37.4914 -105.2958 81° East 472 543 39,000  Level Denver Center
Mon 04:41:15 PM 37.5122 -105.1203 81° East 474 545 39,000  Level Denver Center
Mon 04:42:17 PM 37.5286 -104.9625 82° East 474 545 39,000  Level Denver Center
Mon 04:43:19 PM 37.5483 -104.7817 82° East 469 540 39,000  Level Denver Center
Mon 04:44:21 PM 37.5656 -104.6244 82° East 472 543 39,000  Level Denver Center
Mon 04:45:23 PM 37.5847 -104.4403 82° East 474 545 39,000  Level Denver Center
Mon 04:46:26 PM 37.6014 -104.2797 82° East 479 551 39,000  Level Denver Center
Mon 04:47:27 PM 37.6153 -104.1461 82° East 478 550 39,000  Level Denver Center
Mon 04:48:30 PM 37.6403 -103.9228 82° East 492 566 39,000  Level Denver Center
Mon 04:49:32 PM 37.6564 -103.7569 83° East 490 564 39,000  Level Denver Center
Mon 04:50:34 PM 37.6725 -103.5922 83° East 492 566 39,000  Level Denver Center
Mon 04:51:36 PM 37.6917 -103.4003 83° East 492 566 39,000  Level Denver Center
Mon 04:52:38 PM 37.7069 -103.2347 83° East 495 570 39,000  Level Denver Center
Mon 04:53:40 PM 37.7256 -103.0406 83° East 498 573 39,000  Level Denver Center
Mon 04:54:42 PM 37.7408 -102.8744 83° East 498 573 39,000  Level Denver Center
Mon 04:55:44 PM 37.7575 -102.6808 84° East 496 571 39,000  Level Denver Center
Mon 04:56:46 PM 37.7733 -102.5150 83° East 497 572 39,000  Level Denver Center
Mon 04:57:52 PM 37.7881 -102.3308 84° East 496 571 39,000  Level Kansas City Center
Mon 04:58:50 PM 37.8061 -102.1417 83° East 488 562 39,000  Level Denver Center
Mon 04:59:53 PM 37.8197 -101.9794 84° East 486 559 39,000  Level Denver Center
Mon 05:00:59 PM 37.8325 -101.7894 85° East 485 558 39,000  Level Kansas City Center
Mon 05:02:00 PM 37.8281 -101.6239 92° East 491 565 39,000  Level Kansas City Center
Mon 05:03:02 PM 37.8233 -101.4314 92° East 490 564 39,000  Level Kansas City Center
Mon 05:04:04 PM 37.8189 -101.2658 92° East 491 565 39,000  Level Kansas City Center
Mon 05:05:06 PM 37.8131 -101.0725 92° East 490 564 39,000  Level Kansas City Center
Mon 05:06:08 PM 37.8081 -100.9058 92° East 489 563 39,000  Level Kansas City Center
Mon 05:07:10 PM 37.8025 -100.7372 92° East 491 565 39,000  Level Kansas City Center
Mon 05:08:12 PM 37.7967 -100.5408 92° East 494 568 39,000  Level Kansas City Center
Mon 05:09:14 PM 37.7903 -100.3725 93° East 498 573 39,000  Level Kansas City Center
Mon 05:10:16 PM 37.7836 -100.1728 92° East 505 581 39,000 -97 Level Kansas City Center
Mon 05:11:18 PM 37.7767 -100.0003 93° East 511 588 38,800 -484 Descending Kansas City Center
Mon 05:12:20 PM 37.7681 -99.8017 93° East 509 586 38,000 -384 Descending Kansas City Center
Mon 05:13:23 PM 37.7614 -99.6361 93° East 497 572 38,000 -1,488 Level Kansas City Center
Mon 05:14:25 PM 37.7553 -99.4728 93° East 492 566 34,900 -3,097 Descending Kansas City Center
Mon 05:15:27 PM 37.7475 -99.2978 93° East 497 572 31,600 -3,823 Descending Kansas City Center
Mon 05:16:29 PM 37.7389 -99.0889 93° East 496 571 27,000 -3,968 Descending Kansas City Center
Mon 05:17:31 PM 37.7294 -98.9164 94° East 496 571 23,400 -2,758 Descending Kansas City Center
Mon 05:18:33 PM 37.7217 -98.7522 93° East 478 550 21,300 -2,016 Descending Kansas City Center
Mon 05:19:36 PM 37.7133 -98.6003 94° East 449 517 19,200 -2,170 Descending Kansas City Center
Mon 05:20:07 PM 37.7094 -98.5089 93° East 412 474 17,900 -1,452 Descending Kansas City Center
Mon 05:20:38 PM 37.7069 -98.4575 94° East 420 483 17,700 -1,347 Descending Kansas City Center
Mon 05:20:56 PM 37.7042 -98.4011 94° East 397 457 16,800 -2,323 Descending Kansas City Center
Mon 05:21:40 PM 37.6950 -98.3192 98° East 402 463 15,300 -3,246 Descending Kansas City Center
Mon 05:21:57 PM 37.6825 -98.2539 104° East 401 461 13,500 -4,065 Descending Kansas City Center
Mon 05:22:42 PM 37.6672 -98.1522 101° East 408 470 11,100 -3,100 Descending Kansas City Center
Mon 05:22:57 PM 37.6611 -98.1117 101° East 416 479 10,400 -1,065 Descending Kansas City Center
Mon 05:23:44 PM 37.6467 -98.0203 101° East 394 453 10,000 -590 Descending Kansas City Center
Mon 05:23:58 PM 37.6417 -97.9903 102° East 339 390 9,800 -1,452 Descending Kansas City Center
Mon 05:24:46 PM 37.6289 -97.9133 102° East 326 375 8,500 -1,770 Descending Kansas City Center
Mon 05:24:59 PM 37.6253 -97.8819 98° East 295 339 8,000 -1,839 Descending Kansas City Center
Mon 05:25:48 PM 37.6119 -97.8103 103° East 311 358 6,600 -1,800 Descending Kansas City Center
Mon 05:25:59 PM 37.6072 -97.7814 102° East 297 342 6,200 -1,355 Descending Kansas City Center
Mon 05:26:50 PM 37.5958 -97.7119 102° East 300 345 5,200 -1,475 Descending Kansas City Center
Mon 05:27:00 PM 37.5919 -97.6861 101° East 274 315 4,700 -1,452 Descending Kansas City Center
Mon 05:27:52 PM 37.5789 -97.6053 101° East 278 320 3,700 -1,065 Descending Kansas City Center
Mon 05:28:02 PM 37.5767 -97.5933 103° East 246 283 3,600 -387 Descending Kansas City Center
Mon 05:28:54 PM 37.5658 -97.5269 102° East 252 290 3,300 -407 Descending Kansas City Center
Mon 05:29:01 PM 37.5653 -97.5186 95° East 208 239 3,200 -581 Descending Kansas City Center
Mon 05:29:56 PM 37.5739 -97.4725 77° East 207 238 2,700 -600 Descending Kansas City Center
Mon 05:30:01 PM 37.5817 -97.4711 North 146 168 2,600 -774 Descending Kansas City Center
Mon 05:30:58 PM 37.6103 -97.4558 23° Northeast 164 189 1,900 -787 Descending Kansas City Center
Mon 05:31:02 PM 37.6158 -97.4553 North 126 145 1,800 -290 Descending Kansas City Center
Mon 05:32:00 PM 37.6525 -97.4353 23° Northeast 155 178 1,600 -207 Descending Kansas City Center
Mon 05:33:00 PM 37.6499 -97.4331 113° Southeast  Level Estimated

Login

Don't have an account? Register now (free) for customized features, flight alerts, and more!